Time;durP1;ratioP1;P1;durP2;ratioP2;P2;SDS_P1;SDS_P2;PMS_P1;PMS_P2;Temp;Humidity;BMP_temperature;BMP_pressure;BME280_temperature;BME280_humidity;BME280_pressure;Samples;Min_cycle;Max_cycle;Signal;HPM_P1;HPM_P2
2022/01/25 00:25:19;;;;;;;;;;;;;;;-15.87;59.24;98200.91;6366367;27;19923;-62
2022/01/25 00:31:34;;;;;;;;;;;;;;;-15.80;59.53;98197.06;6377680;27;19930;-62
2022/01/25 00:34:35;;;;;;;;;;;;;;;-15.75;58.54;98189.78;6375667;27;19930;-63
2022/01/25 00:37:38;;;;;;;;;;;;;;;-15.76;58.54;98175.44;6360060;27;19931;-62
2022/01/25 00:40:39;;;;;;;;;;;;;;;-15.74;59.00;98181.44;6367759;27;19930;-63
2022/01/25 00:43:43;;;;;;;;;;;;;;;-15.71;58.98;98181.59;6361805;27;20300;-63
2022/01/25 00:46:47;;;;;;;;;;;;;;;-15.69;58.57;98180.91;6374587;27;20296;-62
2022/01/25 00:49:52;;;;;;;;;;;;;;;-15.68;58.44;98187.72;6379859;27;19923;-62
2022/01/25 00:55:56;;;;;;;;;;;;;;;-15.73;58.46;98178.16;6363632;27;19923;-62
2022/01/25 00:59:03;;;;;;;;;;;;;;;-15.81;58.82;98161.69;6366171;27;20341;-62
2022/01/25 01:02:10;;;;;;;;;;;;;;;-15.87;59.18;98160.56;6368219;27;19941;-62
2022/01/25 01:05:14;;;;;;;;;;;;;;;-15.95;59.31;98156.72;6367819;27;19923;-62
2022/01/25 01:08:15;;;;;;;;;;;;;;;-16.03;59.77;98157.91;6362692;27;19947;-62
2022/01/25 01:11:23;;;;;;;;;;;;;;;-16.10;59.77;98145.75;6366897;27;19938;-63
2022/01/25 01:31:11;;;;;;;;;;;;;;;-16.55;59.02;98140.56;6369968;27;19930;-63
2022/01/25 01:38:11;;;;;;;;;;;;;;;-16.60;59.30;98120.91;6386298;27;19927;-62
2022/01/25 01:44:05;;;;;;;;;;;;;;;-16.63;58.40;98115.69;6376926;27;19923;-63
2022/01/25 01:47:11;;;;;;;;;;;;;;;-16.68;58.20;98109.50;6377538;27;19923;-62
2022/01/25 01:50:16;;;;;;;;;;;;;;;-16.73;58.15;98101.66;6364516;27;19937;-62
2022/01/25 01:53:17;;;;;;;;;;;;;;;-16.78;58.05;98098.06;6369886;27;19967;-63
2022/01/25 01:56:23;;;;;;;;;;;;;;;-16.83;57.65;98117.03;6372918;27;19931;-62
2022/01/25 01:59:24;;;;;;;;;;;;;;;-16.93;57.45;98105.53;6368321;27;19923;-63
2022/01/25 02:02:25;;;;;;;;;;;;;;;-17.00;57.38;98105.94;6356158;27;19939;-63
2022/01/25 02:05:26;;;;;;;;;;;;;;;-17.10;57.51;98103.63;6356682;27;20308;-63
2022/01/25 02:08:27;;;;;;;;;;;;;;;-17.19;57.75;98120.69;6354079;27;19919;-63
2022/01/25 02:11:28;;;;;;;;;;;;;;;-17.26;57.74;98130.34;6358479;27;19930;-63
2022/01/25 02:14:29;;;;;;;;;;;;;;;-17.33;58.09;98133.25;6362488;27;19920;-63
2022/01/25 02:23:58;;;;;;;;;;;;;;;-17.39;57.72;98121.94;6324770;27;20059;-62
2022/01/25 02:27:00;;;;;;;;;;;;;;;-17.44;57.54;98126.66;6318019;28;19928;-62
2022/01/25 02:30:00;;;;;;;;;;;;;;;-17.49;57.80;98115.44;6332579;27;19924;-62
2022/01/25 02:33:02;;;;;;;;;;;;;;;-17.52;57.73;98126.19;6330379;27;19924;-62
2022/01/25 02:36:05;;;;;;;;;;;;;;;-17.53;57.28;98121.06;6336534;27;19930;-62
2022/01/25 02:39:06;;;;;;;;;;;;;;;-17.55;57.17;98115.06;6350655;27;19931;-62
2022/01/25 02:42:08;;;;;;;;;;;;;;;-17.60;57.55;98112.28;6337976;27;19923;-63
2022/01/25 02:45:15;;;;;;;;;;;;;;;-17.63;57.66;98106.16;6344233;27;19947;-64
2022/01/25 02:48:30;;;;;;;;;;;;;;;-17.66;57.24;98107.72;6337430;27;20320;-63
2022/01/25 02:51:33;;;;;;;;;;;;;;;-17.71;57.71;98109.06;6345232;27;20073;-63
2022/01/25 02:54:35;;;;;;;;;;;;;;;-17.74;57.53;98123.94;6330829;28;20385;-63
2022/01/25 02:57:36;;;;;;;;;;;;;;;-17.76;57.66;98112.91;6354424;27;19928;-63
2022/01/25 03:00:40;;;;;;;;;;;;;;;-17.77;57.32;98113.69;6357711;27;20015;-63
2022/01/25 03:03:41;;;;;;;;;;;;;;;-17.76;57.31;98114.56;6355250;27;19923;-63
2022/01/25 03:06:47;;;;;;;;;;;;;;;-17.78;57.48;98106.06;6352533;27;19927;-63
2022/01/25 03:09:53;;;;;;;;;;;;;;;-17.77;57.26;98103.66;6362457;27;19923;-63
2022/01/25 03:12:56;;;;;;;;;;;;;;;-17.78;57.34;98109.47;6349708;27;19923;-63
2022/01/25 03:16:07;;;;;;;;;;;;;;;-17.81;57.26;98096.69;6350248;27;19924;-63
2022/01/25 03:22:55;;;;;;;;;;;;;;;-17.85;57.41;98094.78;6354002;27;19930;-63
2022/01/25 03:25:54;;;;;;;;;;;;;;;-17.86;57.18;98098.03;6355202;27;19924;-62
2022/01/25 03:28:55;;;;;;;;;;;;;;;-17.85;57.55;98089.75;6360332;27;19939;-63
2022/01/25 03:31:56;;;;;;;;;;;;;;;-17.89;56.94;98097.84;6351752;27;19927;-63
2022/01/25 03:34:59;;;;;;;;;;;;;;;-17.96;56.84;98100.75;6336650;27;19950;-63
2022/01/25 03:38:04;;;;;;;;;;;;;;;-18.00;57.31;98099.69;6349451;27;19924;-64
2022/01/25 03:41:09;;;;;;;;;;;;;;;-18.01;56.92;98107.09;6354696;27;19931;-64
2022/01/25 03:44:11;;;;;;;;;;;;;;;-18.03;57.06;98106.13;6336497;27;19923;-64
2022/01/25 03:47:16;;;;;;;;;;;;;;;-18.02;57.07;98110.41;6336601;27;19928;-62
2022/01/25 03:50:17;;;;;;;;;;;;;;;-18.03;57.29;98112.03;6362773;27;19930;-63
2022/01/25 03:53:19;;;;;;;;;;;;;;;-18.01;56.84;98107.09;6355149;27;19928;-63
2022/01/25 03:56:21;;;;;;;;;;;;;;;-18.01;56.95;98107.97;6335592;27;19931;-63
2022/01/25 03:59:22;;;;;;;;;;;;;;;-18.00;56.71;98096.28;6353938;27;19930;-63
2022/01/25 04:02:24;;;;;;;;;;;;;;;-17.95;57.15;98105.00;6353103;27;19923;-63
2022/01/25 04:05:36;;;;;;;;;;;;;;;-17.95;56.83;98093.28;6366155;27;20047;-63
2022/01/25 04:08:42;;;;;;;;;;;;;;;-17.90;56.83;98084.41;6357209;27;19919;-62
2022/01/25 04:11:43;;;;;;;;;;;;;;;-17.75;56.50;98081.09;6356083;27;19938;-64
2022/01/25 04:14:45;;;;;;;;;;;;;;;-17.53;56.81;98075.78;6357981;27;19920;-63
2022/01/25 04:17:51;;;;;;;;;;;;;;;-17.24;57.51;98073.44;6359010;27;19974;-63
2022/01/25 04:21:01;;;;;;;;;;;;;;;-17.21;57.66;98072.75;6362581;27;19923;-63
2022/01/25 04:27:24;;;;;;;;;;;;;;;-17.01;57.64;98066.44;6353962;28;19923;-62
2022/01/25 04:30:28;;;;;;;;;;;;;;;-16.92;57.54;98071.19;6347186;28;20486;-63
2022/01/25 04:33:39;;;;;;;;;;;;;;;-16.84;57.73;98065.81;6356175;28;19923;-63
2022/01/25 04:49:52;;;;;;;;;;;;;;;-16.40;56.93;98060.00;6326331;28;20309;-63
2022/01/25 04:53:08;;;;;;;;;;;;;;;-16.26;56.93;98067.50;6321556;28;19924;-62
2022/01/25 04:56:18;;;;;;;;;;;;;;;-16.17;56.50;98073.06;6345662;28;19930;-64
2022/01/25 04:59:40;;;;;;;;;;;;;;;-16.17;56.90;98073.91;6361666;28;19934;-62
2022/01/25 05:05:59;;;;;;;;;;;;;;;-15.92;56.47;98062.72;6364643;27;20422;-65
2022/01/25 05:09:12;;;;;;;;;;;;;;;-15.83;56.21;98069.94;6368962;27;19927;-65
2022/01/25 05:12:14;;;;;;;;;;;;;;;-15.75;55.91;98059.50;6361792;27;19923;-68
2022/01/25 05:15:37;;;;;;;;;;;;;;;-15.64;55.80;98058.41;6364785;27;19927;-70
2022/01/25 05:18:43;;;;;;;;;;;;;;;-15.50;55.58;98065.88;6368705;27;19929;-70
2022/01/25 05:25:08;;;;;;;;;;;;;;;-15.26;55.39;98057.13;6361587;27;20491;-70
2022/01/25 05:28:09;;;;;;;;;;;;;;;-15.11;55.37;98052.06;6329635;27;19935;-65
2022/01/25 05:31:10;;;;;;;;;;;;;;;-14.95;55.16;98044.47;6336997;27;19946;-65
2022/01/25 05:34:14;;;;;;;;;;;;;;;-14.75;55.46;98042.13;6319086;27;19958;-68
2022/01/25 05:37:19;;;;;;;;;;;;;;;-14.61;55.31;98036.13;6355734;27;19927;-69
2022/01/25 05:40:59;;;;;;;;;;;;;;;-14.48;55.36;98028.38;6349236;27;19924;-65
2022/01/25 05:44:04;;;;;;;;;;;;;;;-14.29;55.19;98030.16;6355971;27;20015;-64
2022/01/25 05:47:12;;;;;;;;;;;;;;;-14.15;55.47;98023.28;6345982;27;19928;-65
2022/01/25 05:50:13;;;;;;;;;;;;;;;-13.97;55.42;98022.44;6339961;27;19940;-65
2022/01/25 05:53:17;;;;;;;;;;;;;;;-13.82;54.94;98018.97;6336036;27;19928;-65
2022/01/25 05:56:18;;;;;;;;;;;;;;;-13.66;55.14;98023.13;6320928;27;19924;-65
2022/01/25 05:59:24;;;;;;;;;;;;;;;-13.53;55.04;98011.91;6333175;27;20405;-66
2022/01/25 06:02:31;;;;;;;;;;;;;;;-13.37;55.49;98016.03;6357438;27;19928;-66
2022/01/25 06:05:35;;;;;;;;;;;;;;;-13.21;54.95;98015.91;6328683;27;19930;-66
2022/01/25 06:08:38;;;;;;;;;;;;;;;-13.07;54.72;98013.16;6329222;28;19930;-67
2022/01/25 06:11:42;;;;;;;;;;;;;;;-12.94;54.98;98025.53;6342793;28;19924;-65
2022/01/25 06:14:43;;;;;;;;;;;;;;;-12.81;54.10;98017.69;6343305;27;20404;-66
2022/01/25 06:17:47;;;;;;;;;;;;;;;-12.74;54.40;98019.69;6340175;27;20305;-64
2022/01/25 06:20:48;;;;;;;;;;;;;;;-12.58;54.49;98022.91;6341900;27;19930;-65
2022/01/25 06:23:51;;;;;;;;;;;;;;;-12.40;54.85;98021.16;6338848;27;20393;-66
2022/01/25 06:26:58;;;;;;;;;;;;;;;-12.17;54.98;98023.81;6341791;27;19928;-65
2022/01/25 06:30:12;;;;;;;;;;;;;;;-11.93;54.05;98011.28;6339835;27;19927;-66
2022/01/25 06:33:16;;;;;;;;;;;;;;;-11.66;53.82;98011.50;6335242;27;20026;-66
2022/01/25 06:36:18;;;;;;;;;;;;;;;-11.43;53.15;98008.22;6337987;27;19926;-66
2022/01/25 06:39:19;;;;;;;;;;;;;;;-11.18;52.59;98010.03;6333023;27;19931;-66
2022/01/25 06:42:21;;;;;;;;;;;;;;;-10.97;52.29;98012.50;6339443;27;19923;-66
2022/01/25 06:45:24;;;;;;;;;;;;;;;-10.71;51.93;98003.28;6334212;27;19927;-66
2022/01/25 06:48:28;;;;;;;;;;;;;;;-10.54;51.59;98001.34;6327321;27;19924;-64
2022/01/25 06:51:31;;;;;;;;;;;;;;;-10.34;51.43;97999.50;6347204;27;19923;-66
2022/01/25 06:54:34;;;;;;;;;;;;;;;-10.06;51.14;97991.09;6332343;28;19924;-65
2022/01/25 06:57:35;;;;;;;;;;;;;;;-7.64;48.39;97992.16;6346050;27;19927;-65
2022/01/25 07:00:41;;;;;;;;;;;;;;;-2.65;41.19;97995.28;6331461;27;20297;-65
2022/01/25 07:03:42;;;;;;;;;;;;;;;1.54;34.46;97994.13;6330934;27;20308;-65
2022/01/25 07:06:46;;;;;;;;;;;;;;;4.81;30.96;97994.53;6328578;27;19928;-65
2022/01/25 07:09:47;;;;;;;;;;;;;;;7.93;28.34;97990.41;6345177;27;20403;-65
2022/01/25 07:12:51;;;;;;;;;;;;;;;10.26;27.36;97994.88;6340983;27;19924;-64
2022/01/25 07:15:52;;;;;;;;;;;;;;;11.74;24.53;97987.72;6336607;27;20748;-66
2022/01/25 07:18:55;;;;;;;;;;;;;;;12.83;22.96;97992.47;6339896;27;19931;-66
2022/01/25 07:21:56;;;;;;;;;;;;;;;13.86;17.48;97980.28;6334228;27;19930;-66
2022/01/25 07:25:00;;;;;;;;;;;;;;;14.68;25.18;97973.44;6340080;27;19928;-66
2022/01/25 07:28:06;;;;;;;;;;;;;;;15.18;25.20;97966.66;6334478;27;20308;-66
2022/01/25 07:31:07;;;;;;;;;;;;;;;15.62;25.11;97965.47;6335250;27;19931;-65
2022/01/25 07:34:08;;;;;;;;;;;;;;;15.88;23.78;97961.09;6340287;27;20022;-66
2022/01/25 07:37:10;;;;;;;;;;;;;;;16.00;23.39;97954.09;6319705;28;19924;-66
2022/01/25 07:40:16;;;;;;;;;;;;;;;16.46;23.18;97953.47;6332947;27;19919;-67
2022/01/25 07:43:17;;;;;;;;;;;;;;;17.32;22.38;97944.53;6335200;27;19947;-65
2022/01/25 07:46:18;;;;;;;;;;;;;;;18.22;22.29;97944.75;6329824;27;19924;-66
2022/01/25 07:49:19;;;;;;;;;;;;;;;19.10;21.59;97938.56;6332358;28;19924;-66
2022/01/25 07:52:20;;;;;;;;;;;;;;;19.90;22.07;97934.53;6327908;28;20262;-66
2022/01/25 07:55:22;;;;;;;;;;;;;;;20.75;19.88;97936.03;6331890;27;20000;-65
2022/01/25 07:58:27;;;;;;;;;;;;;;;21.25;18.92;97930.63;6340136;28;20308;-65
2022/01/25 08:01:28;;;;;;;;;;;;;;;21.65;17.87;97930.47;6338437;28;20309;-65
2022/01/25 08:04:34;;;;;;;;;;;;;;;21.98;18.94;97921.09;6335597;27;19924;-66
2022/01/25 08:07:37;;;;;;;;;;;;;;;22.24;17.90;97917.78;6337597;27;20340;-66
2022/01/25 08:10:41;;;;;;;;;;;;;;;22.49;18.22;97918.13;6336705;28;19924;-66
2022/01/25 08:13:49;;;;;;;;;;;;;;;22.65;16.99;97910.28;6339176;27;19924;-65
2022/01/25 08:16:53;;;;;;;;;;;;;;;22.71;17.87;97906.97;6334547;27;19967;-65
2022/01/25 08:19:57;;;;;;;;;;;;;;;22.62;16.23;97907.88;6338304;27;19927;-66
2022/01/25 08:22:58;;;;;;;;;;;;;;;22.86;12.61;97910.81;6337992;28;19924;-65
2022/01/25 08:26:15;;;;;;;;;;;;;;;23.31;18.07;97909.94;6334106;28;19931;-65
2022/01/25 08:29:16;;;;;;;;;;;;;;;23.57;18.21;97914.53;6339454;28;19931;-66
2022/01/25 08:32:20;;;;;;;;;;;;;;;23.87;18.02;97915.13;6332604;28;19924;-66
2022/01/25 08:35:22;;;;;;;;;;;;;;;24.07;17.93;97916.59;6334397;28;20366;-66
2022/01/25 08:38:25;;;;;;;;;;;;;;;23.84;17.33;97904.69;6338168;28;20018;-65
2022/01/25 08:41:28;;;;;;;;;;;;;;;23.52;17.68;97901.59;6340055;27;19968;-65
2022/01/25 08:44:32;;;;;;;;;;;;;;;23.26;17.54;97892.63;6344448;28;19924;-63
2022/01/25 08:47:36;;;;;;;;;;;;;;;22.99;16.03;97891.72;6340387;28;19924;-63
2022/01/25 08:50:39;;;;;;;;;;;;;;;23.14;16.42;97896.53;6346701;28;20381;-63
2022/01/25 08:53:43;;;;;;;;;;;;;;;23.09;17.16;97894.31;6344374;28;19923;-64
2022/01/25 08:56:44;;;;;;;;;;;;;;;22.59;16.67;97892.06;6334178;28;20016;-64
2022/01/25 08:59:46;;;;;;;;;;;;;;;21.93;15.39;97885.84;6345890;28;19928;-64
2022/01/25 09:02:49;;;;;;;;;;;;;;;21.43;17.08;97894.16;6340927;28;20309;-67
2022/01/25 09:05:53;;;;;;;;;;;;;;;20.51;16.04;97889.09;6338294;28;20423;-68
2022/01/25 09:09:04;;;;;;;;;;;;;;;20.26;16.65;97878.88;6339498;28;20297;-64
2022/01/25 09:12:05;;;;;;;;;;;;;;;20.03;15.80;97876.41;6322757;28;20014;-64
2022/01/25 09:15:07;;;;;;;;;;;;;;;20.22;15.25;97875.66;6343884;28;19946;-64
2022/01/25 09:18:10;;;;;;;;;;;;;;;20.45;12.95;97867.41;6339280;28;20165;-64
2022/01/25 09:21:12;;;;;;;;;;;;;;;20.68;12.50;97870.72;6344550;28;19930;-63
2022/01/25 09:24:14;;;;;;;;;;;;;;;20.49;13.18;97866.97;6341173;28;20275;-64
2022/01/25 09:27:15;;;;;;;;;;;;;;;20.41;15.42;97864.19;6343417;28;20282;-64
2022/01/25 09:30:16;;;;;;;;;;;;;;;20.59;14.47;97862.53;6342984;28;19935;-63
2022/01/25 09:33:17;;;;;;;;;;;;;;;20.82;13.10;97856.94;6342630;28;20404;-64
2022/01/25 09:36:24;;;;;;;;;;;;;;;20.75;10.63;97856.66;6342000;28;19923;-64
2022/01/25 09:39:26;;;;;;;;;;;;;;;20.32;13.89;97854.28;6345001;28;19930;-64
2022/01/25 09:42:30;;;;;;;;;;;;;;;20.01;13.79;97845.47;6341876;28;19923;-64
2022/01/25 09:45:34;;;;;;;;;;;;;;;19.74;14.30;97839.72;6343484;28;19935;-63
2022/01/25 09:48:38;;;;;;;;;;;;;;;19.50;13.33;97831.13;6341873;28;19924;-64
2022/01/25 09:51:40;;;;;;;;;;;;;;;19.22;15.56;97820.19;6338915;28;19923;-64
2022/01/25 09:54:51;;;;;;;;;;;;;;;18.96;14.46;97826.84;6340490;28;19963;-64
2022/01/25 09:57:52;;;;;;;;;;;;;;;18.58;13.42;97823.69;6343663;28;19930;-64
2022/01/25 10:00:59;;;;;;;;;;;;;;;18.08;13.88;97825.16;6340616;28;19932;-63
2022/01/25 10:04:04;;;;;;;;;;;;;;;17.57;14.05;97814.97;6343719;27;19924;-63
2022/01/25 10:07:10;;;;;;;;;;;;;;;17.11;13.58;97815.88;6339256;28;19923;-63
2022/01/25 10:10:13;;;;;;;;;;;;;;;16.61;16.18;97814.19;6342348;28;19934;-63
2022/01/25 10:13:23;;;;;;;;;;;;;;;16.17;16.24;97823.63;6340999;28;19924;-64
2022/01/25 10:16:31;;;;;;;;;;;;;;;15.88;13.44;97823.09;6345751;28;19923;-64
2022/01/25 10:19:41;;;;;;;;;;;;;;;15.56;15.82;97824.47;6343686;28;20056;-63
2022/01/25 10:22:43;;;;;;;;;;;;;;;14.91;16.54;97823.56;6338389;28;19938;-63
2022/01/25 10:25:46;;;;;;;;;;;;;;;14.06;16.18;97814.13;6342577;28;19931;-63
2022/01/25 10:28:50;;;;;;;;;;;;;;;13.06;16.15;97812.34;6340817;28;19924;-63
2022/01/25 10:31:54;;;;;;;;;;;;;;;11.86;16.54;97816.56;6340200;28;19923;-64
2022/01/25 10:34:56;;;;;;;;;;;;;;;11.32;16.51;97815.06;6336830;28;19924;-64
2022/01/25 10:37:57;;;;;;;;;;;;;;;10.83;16.62;97807.94;6323214;28;20393;-63
2022/01/25 10:41:06;;;;;;;;;;;;;;;10.15;16.09;97804.28;6339264;28;19923;-64
2022/01/25 10:44:11;;;;;;;;;;;;;;;9.52;16.51;97802.00;6336890;28;19924;-64
2022/01/25 10:47:15;;;;;;;;;;;;;;;8.41;17.14;97798.09;6341631;28;19930;-64
2022/01/25 10:50:27;;;;;;;;;;;;;;;5.71;18.88;97798.06;6339789;28;20312;-63
2022/01/25 10:53:31;;;;;;;;;;;;;;;3.20;21.64;97799.28;6339489;28;19923;-64
2022/01/25 10:56:57;;;;;;;;;;;;;;;1.40;23.13;97797.19;6343863;28;19956;-64
2022/01/25 11:00:03;;;;;;;;;;;;;;;-0.22;24.32;97797.16;6341474;28;20444;-64
2022/01/25 11:03:05;;;;;;;;;;;;;;;-1.30;25.02;97801.13;6340926;28;19930;-65
2022/01/25 11:06:16;;;;;;;;;;;;;;;-1.81;25.51;97802.13;6340745;28;19924;-63
2022/01/25 11:13:03;;;;;;;;;;;;;;;-3.20;26.01;97807.00;6341087;28;19931;-63
2022/01/25 11:16:08;;;;;;;;;;;;;;;-3.79;26.88;97804.97;6338698;28;20413;-64
2022/01/25 11:19:09;;;;;;;;;;;;;;;-4.27;27.28;97804.63;6343822;28;19930;-64
2022/01/25 11:22:19;;;;;;;;;;;;;;;-4.59;27.36;97810.31;6339314;28;19927;-64
2022/01/25 11:25:22;;;;;;;;;;;;;;;-4.83;27.38;97800.66;6341027;28;19923;-64
2022/01/25 11:28:26;;;;;;;;;;;;;;;-5.20;27.87;97804.53;6339466;28;19928;-63
2022/01/25 11:31:30;;;;;;;;;;;;;;;-5.34;28.42;97806.06;6334040;28;19924;-65
2022/01/25 11:34:33;;;;;;;;;;;;;;;-5.78;29.86;97804.59;6338720;28;19924;-63
2022/01/25 11:37:40;;;;;;;;;;;;;;;-6.30;30.82;97792.75;6337458;28;20018;-66
2022/01/25 11:40:46;;;;;;;;;;;;;;;-7.10;31.41;97793.91;6339632;28;20433;-65
2022/01/25 11:44:09;;;;;;;;;;;;;;;-7.65;32.03;97803.00;6351091;27;19924;-65
2022/01/25 11:47:13;;;;;;;;;;;;;;;-7.51;32.06;97786.25;6363916;27;19923;-65
2022/01/25 11:50:17;;;;;;;;;;;;;;;-7.60;31.59;97788.63;6346548;27;19924;-66
2022/01/25 11:53:19;;;;;;;;;;;;;;;-7.65;30.96;97785.09;6343649;27;19931;-66
2022/01/25 11:56:25;;;;;;;;;;;;;;;-7.77;30.86;97790.81;6352889;27;19931;-65
2022/01/25 11:59:33;;;;;;;;;;;;;;;-7.89;31.07;97791.41;6335031;28;20421;-66
2022/01/25 12:02:36;;;;;;;;;;;;;;;-8.03;31.50;97798.78;6331932;28;20313;-61
2022/01/25 12:05:52;;;;;;;;;;;;;;;-8.11;31.13;97789.22;6335728;28;19923;-62
2022/01/25 12:12:15;;;;;;;;;;;;;;;-8.43;32.06;97786.81;6298428;28;19931;-62
2022/01/25 12:15:19;;;;;;;;;;;;;;;-8.65;32.18;97790.50;6319106;28;19920;-60
2022/01/25 12:18:40;;;;;;;;;;;;;;;-8.88;32.51;97787.38;6321671;28;20061;-59
2022/01/25 12:25:48;;;;;;;;;;;;;;;-9.51;33.18;97778.91;6332622;28;20074;-60
2022/01/25 12:28:50;;;;;;;;;;;;;;;-9.77;33.23;97784.91;6323517;28;19931;-62
2022/01/25 12:31:51;;;;;;;;;;;;;;;-10.02;33.59;97786.75;6326515;28;20197;-62
2022/01/25 12:34:59;;;;;;;;;;;;;;;-10.22;33.79;97785.25;6319994;28;19935;-63
2022/01/25 12:38:02;;;;;;;;;;;;;;;-10.44;34.41;97782.09;6325374;28;19928;-62
2022/01/25 12:41:08;;;;;;;;;;;;;;;-10.68;34.56;97781.28;6333664;28;20414;-62
2022/01/25 12:44:10;;;;;;;;;;;;;;;-10.96;34.75;97777.84;6326602;28;19949;-61
2022/01/25 12:47:10;;;;;;;;;;;;;;;-11.12;34.91;97790.84;6319357;28;20243;-59
2022/01/25 12:50:12;;;;;;;;;;;;;;;-11.22;35.16;97783.72;6318820;28;19924;-60
2022/01/25 12:53:14;;;;;;;;;;;;;;;-11.33;36.36;97790.97;6323252;28;19928;-60
2022/01/25 12:56:19;;;;;;;;;;;;;;;-11.60;36.50;97795.94;6333664;28;19927;-58
2022/01/25 12:59:23;;;;;;;;;;;;;;;-11.84;37.01;97785.72;6336644;28;19924;-60
2022/01/25 13:02:28;;;;;;;;;;;;;;;-12.00;36.84;97789.38;6326935;28;19968;-60
2022/01/25 13:05:29;;;;;;;;;;;;;;;-12.12;37.09;97799.09;6337527;28;19924;-60
2022/01/25 13:08:33;;;;;;;;;;;;;;;-12.25;37.03;97798.63;6304647;28;19942;-58
2022/01/25 13:11:49;;;;;;;;;;;;;;;-12.38;37.32;97793.88;6334085;28;19931;-60
2022/01/25 13:15:03;;;;;;;;;;;;;;;-12.50;37.31;97795.94;6335497;28;20305;-61
2022/01/25 13:18:10;;;;;;;;;;;;;;;-12.60;36.98;97801.44;6331009;28;19977;-61
2022/01/25 13:21:12;;;;;;;;;;;;;;;-12.77;37.21;97801.59;6327751;28;19924;-59
2022/01/25 13:24:18;;;;;;;;;;;;;;;-12.89;37.64;97796.03;6329990;28;20273;-60
2022/01/25 13:27:20;;;;;;;;;;;;;;;-12.96;37.34;97799.16;6339641;28;19931;-60
2022/01/25 13:30:45;;;;;;;;;;;;;;;-13.03;37.49;97799.69;6330991;28;20015;-60
2022/01/25 13:33:46;;;;;;;;;;;;;;;-13.10;37.57;97803.63;6310757;28;19924;-60
2022/01/25 13:36:49;;;;;;;;;;;;;;;-13.24;37.14;97797.97;6334502;28;19923;-60
2022/01/25 13:40:04;;;;;;;;;;;;;;;-13.35;38.08;97789.09;6334065;28;20426;-60
2022/01/25 13:43:30;;;;;;;;;;;;;;;-13.44;38.16;97793.78;6335248;28;19924;-59
2022/01/25 13:46:33;;;;;;;;;;;;;;;-13.51;39.65;97796.81;6331950;28;20374;-59
2022/01/25 13:49:34;;;;;;;;;;;;;;;-13.54;37.71;97802.63;6331430;28;19923;-60
2022/01/25 13:52:35;;;;;;;;;;;;;;;-13.62;37.99;97797.22;6330267;28;19924;-58
2022/01/25 13:55:46;;;;;;;;;;;;;;;-13.70;37.76;97796.03;6331288;28;20011;-60
2022/01/25 13:58:50;;;;;;;;;;;;;;;-13.78;38.04;97797.34;6328874;28;19931;-63
2022/01/25 14:01:53;;;;;;;;;;;;;;;-13.82;38.31;97810.66;6333624;28;19924;-62
2022/01/25 14:05:01;;;;;;;;;;;;;;;-13.86;38.16;97794.47;6334135;28;19930;-60
2022/01/25 14:08:02;;;;;;;;;;;;;;;-13.91;38.78;97795.06;6339613;28;19928;-59
2022/01/25 14:11:35;;;;;;;;;;;;;;;-13.98;38.57;97798.09;6331472;28;19924;-61
2022/01/25 14:24:55;;;;;;;;;;;;;;;-14.30;39.27;97794.97;6239654;28;19925;-64
2022/01/25 14:27:58;;;;;;;;;;;;;;;-14.35;38.78;97783.78;6335702;28;19928;-65
2022/01/25 14:31:01;;;;;;;;;;;;;;;-14.40;39.11;97785.25;6320518;28;19935;-60
2022/01/25 14:34:08;;;;;;;;;;;;;;;-14.48;39.48;97779.84;6312513;28;19924;-64
2022/01/25 14:37:13;;;;;;;;;;;;;;;-14.51;39.39;97785.59;6339224;28;19928;-68
2022/01/25 14:40:17;;;;;;;;;;;;;;;-14.53;39.49;97786.34;6331949;28;20356;-69
2022/01/25 14:43:18;;;;;;;;;;;;;;;-14.56;40.19;97781.16;6336513;28;20302;-69
2022/01/25 14:46:34;;;;;;;;;;;;;;;-14.57;42.75;97789.53;6327560;28;19928;-64
2022/01/25 14:49:41;;;;;;;;;;;;;;;-14.56;40.16;97792.13;6344412;28;19928;-64
2022/01/25 14:52:42;;;;;;;;;;;;;;;-14.62;39.74;97786.78;6335455;28;20322;-66
2022/01/25 14:55:47;;;;;;;;;;;;;;;-14.67;39.64;97783.19;6342993;28;20429;-64
2022/01/25 15:02:04;;;;;;;;;;;;;;;-14.83;40.02;97785.75;6334496;28;20305;-64
2022/01/25 15:05:05;;;;;;;;;;;;;;;-14.93;40.09;97799.59;6338369;28;19924;-61
2022/01/25 15:08:07;;;;;;;;;;;;;;;-15.00;40.05;97798.44;6328637;28;19931;-62
2022/01/25 15:11:08;;;;;;;;;;;;;;;-15.03;40.20;97799.94;6330548;28;19924;-62
2022/01/25 15:14:16;;;;;;;;;;;;;;;-15.08;40.30;97793.81;6334340;28;19953;-63
2022/01/25 15:17:18;;;;;;;;;;;;;;;-15.13;40.26;97796.09;6336629;28;19924;-61
2022/01/25 15:20:22;;;;;;;;;;;;;;;-15.16;40.23;97801.00;6314341;28;20463;-61
2022/01/25 15:23:25;;;;;;;;;;;;;;;-15.18;40.27;97803.44;6327787;28;20036;-62
2022/01/25 15:26:33;;;;;;;;;;;;;;;-15.22;40.57;97795.66;6334323;28;19924;-62
2022/01/25 15:29:39;;;;;;;;;;;;;;;-15.25;40.47;97798.03;6334885;28;19920;-60
2022/01/25 15:32:43;;;;;;;;;;;;;;;-15.27;40.84;97794.56;6327941;28;19931;-62
2022/01/25 15:35:44;;;;;;;;;;;;;;;-15.31;40.58;97790.13;6337753;28;19919;-60
2022/01/25 15:38:46;;;;;;;;;;;;;;;-15.35;40.59;97788.25;6339838;28;20251;-60
2022/01/25 15:41:49;;;;;;;;;;;;;;;-15.40;40.75;97786.38;6342671;28;20212;-64
2022/01/25 15:44:52;;;;;;;;;;;;;;;-15.45;40.57;97790.31;6324420;28;19924;-62
2022/01/25 15:47:55;;;;;;;;;;;;;;;-15.50;41.00;97786.69;6331939;28;20316;-62
2022/01/25 15:51:00;;;;;;;;;;;;;;;-15.57;41.18;97778.72;6337237;28;19967;-63
2022/01/25 15:54:03;;;;;;;;;;;;;;;-15.64;41.11;97770.00;6340100;28;19931;-61
2022/01/25 15:57:07;;;;;;;;;;;;;;;-15.69;41.26;97767.25;6343112;28;19928;-62
2022/01/25 16:00:09;;;;;;;;;;;;;;;-15.69;41.53;97761.34;6341203;28;19924;-60
2022/01/25 16:03:12;;;;;;;;;;;;;;;-15.69;41.08;97766.41;6336357;28;19923;-61
2022/01/25 16:06:15;;;;;;;;;;;;;;;-15.71;40.86;97762.91;6333509;28;20010;-62
2022/01/25 16:09:19;;;;;;;;;;;;;;;-15.74;40.79;97765.28;6338922;28;19928;-63
2022/01/25 16:12:23;;;;;;;;;;;;;;;-15.81;41.31;97760.75;6327790;28;19932;-60
2022/01/25 16:15:26;;;;;;;;;;;;;;;-15.89;41.19;97771.28;6337583;28;19923;-62
2022/01/25 16:18:30;;;;;;;;;;;;;;;-15.96;41.14;97771.75;6341706;28;19924;-63
2022/01/25 16:21:31;;;;;;;;;;;;;;;-16.03;41.49;97768.84;6319332;28;19923;-61
2022/01/25 16:24:33;;;;;;;;;;;;;;;-16.09;41.32;97770.25;6337787;28;20037;-62
2022/01/25 16:27:37;;;;;;;;;;;;;;;-16.13;41.80;97763.31;6332176;28;19931;-61
2022/01/25 16:30:40;;;;;;;;;;;;;;;-16.17;41.65;97768.09;6337848;28;19928;-61
2022/01/25 16:33:41;;;;;;;;;;;;;;;-16.23;41.62;97767.78;6339647;28;19931;-61
2022/01/25 16:36:43;;;;;;;;;;;;;;;-16.27;42.05;97778.47;6338680;28;19931;-63
2022/01/25 16:39:44;;;;;;;;;;;;;;;-16.29;42.00;97778.41;6341522;28;20385;-62
2022/01/25 16:42:46;;;;;;;;;;;;;;;-16.33;42.17;97774.88;6337641;28;19930;-63
2022/01/25 16:45:47;;;;;;;;;;;;;;;-16.36;42.26;97769.66;6336095;28;19930;-62
2022/01/25 16:48:51;;;;;;;;;;;;;;;-16.38;42.73;97768.69;6336485;28;20375;-61
2022/01/25 16:51:55;;;;;;;;;;;;;;;-16.38;42.31;97766.19;6337517;28;20491;-62
2022/01/25 16:54:56;;;;;;;;;;;;;;;-16.43;43.69;97762.53;6337639;28;20384;-59
2022/01/25 16:57:57;;;;;;;;;;;;;;;-16.43;43.91;97772.63;6339450;28;19934;-59
2022/01/25 17:00:58;;;;;;;;;;;;;;;-16.43;44.48;97771.75;6339835;28;20416;-63
2022/01/25 17:03:59;;;;;;;;;;;;;;;-16.46;45.01;97780.00;6336461;28;19924;-64
2022/01/25 17:07:03;;;;;;;;;;;;;;;-16.47;45.53;97767.31;6336014;28;20344;-61
2022/01/25 17:10:05;;;;;;;;;;;;;;;-16.49;45.01;97774.81;6348974;28;19930;-62
2022/01/25 17:13:06;;;;;;;;;;;;;;;-16.49;42.99;97771.44;6337773;28;20305;-69
2022/01/25 17:16:12;;;;;;;;;;;;;;;-16.54;42.68;97772.03;6338818;27;19931;-69
2022/01/25 17:19:16;;;;;;;;;;;;;;;-16.62;43.01;97775.78;6339025;27;20376;-64
2022/01/25 17:22:19;;;;;;;;;;;;;;;-16.68;42.52;97784.66;6343892;28;19924;-64
2022/01/25 17:25:23;;;;;;;;;;;;;;;-16.78;42.38;97781.69;6326760;28;19924;-64
2022/01/25 17:28:26;;;;;;;;;;;;;;;-16.86;42.97;97785.41;6341283;28;19924;-66
2022/01/25 17:31:30;;;;;;;;;;;;;;;-16.89;42.52;97785.25;6337164;28;19924;-62
2022/01/25 17:34:32;;;;;;;;;;;;;;;-16.83;42.43;97779.69;6340198;28;19930;-61
2022/01/25 17:37:33;;;;;;;;;;;;;;;-16.83;42.45;97789.75;6339404;28;19923;-61
2022/01/25 17:40:36;;;;;;;;;;;;;;;-16.88;42.88;97786.97;6332388;28;19931;-62
2022/01/25 17:43:39;;;;;;;;;;;;;;;-16.92;42.62;97795.16;6339451;28;19924;-62